createdAt,value
2022-11-29T00:04:22.490Z,37.83
2022-11-29T00:09:24.155Z,41.40
2022-11-29T00:14:27.544Z,41.95
2022-11-29T00:19:29.356Z,46.40
2022-11-29T00:24:34.592Z,50.70
2022-11-29T00:29:36.330Z,42.50
2022-11-29T00:34:38.055Z,59.60
2022-11-29T00:39:41.059Z,43.30
2022-11-29T00:44:43.077Z,47.75
2022-11-29T00:49:44.936Z,46.20
2022-11-29T00:54:46.914Z,44.47
2022-11-29T00:59:48.674Z,43.20
2022-11-29T01:04:50.810Z,41.63
2022-11-29T01:09:52.622Z,43.28
2022-11-29T01:14:54.306Z,45.03
2022-11-29T01:19:55.970Z,49.42
2022-11-29T01:24:57.595Z,45.05
2022-11-29T01:29:59.199Z,48.30
2022-11-29T01:35:01.028Z,46.75
2022-11-29T01:40:03.587Z,38.35
2022-11-29T01:45:13.908Z,38.78
2022-11-29T01:50:15.999Z,38.83
2022-11-29T01:55:18.304Z,37.50
2022-11-29T02:00:21.735Z,36.60
2022-11-29T02:05:24.664Z,38.45
2022-11-29T02:10:46.074Z,43.92
2022-11-29T02:15:57.801Z,37.90
2022-11-29T02:21:17.612Z,38.45
2022-11-29T02:26:40.594Z,36.72
2022-11-29T02:32:41.223Z,33.47
2022-11-29T02:38:10.589Z,37.03
2022-11-29T02:43:46.175Z,31.75
2022-11-29T02:49:08.710Z,38.15
2022-11-29T02:54:36.302Z,32.08
2022-11-29T02:59:52.789Z,33.22
2022-11-29T03:05:18.587Z,32.35
2022-11-29T03:10:43.095Z,36.38
2022-11-29T03:16:01.779Z,34.03
2022-11-29T03:21:19.399Z,38.55
2022-11-29T03:26:24.303Z,38.05
2022-11-29T03:31:35.797Z,31.00
2022-11-29T03:37:14.827Z,32.88
2022-11-29T03:42:19.787Z,33.67
2022-11-29T03:47:28.212Z,34.88
2022-11-29T03:52:44.650Z,35.92
2022-11-29T03:58:05.780Z,31.13
2022-11-29T04:03:25.581Z,39.72
2022-11-29T04:08:48.222Z,30.58
2022-11-29T04:14:27.123Z,35.53
2022-11-29T04:19:59.311Z,33.10
2022-11-29T04:25:18.006Z,37.10
2022-11-29T04:30:25.105Z,35.88
2022-11-29T04:35:33.778Z,38.80
2022-11-29T04:41:05.992Z,38.08
2022-11-29T04:46:26.699Z,35.88
2022-11-29T04:52:05.181Z,38.72
2022-11-29T04:57:25.463Z,36.08
2022-11-29T05:02:32.725Z,35.90
2022-11-29T05:08:09.725Z,38.22
2022-11-29T05:13:56.590Z,44.45
2022-11-29T05:19:35.836Z,41.33
2022-11-29T05:25:18.518Z,38.33
2022-11-29T05:30:23.094Z,41.75
2022-11-29T05:35:43.315Z,41.15
2022-11-29T05:41:00.053Z,40.70
2022-11-29T05:46:20.251Z,41.80
2022-11-29T05:51:40.477Z,43.50
2022-11-29T05:57:03.063Z,58.58
2022-11-29T06:02:05.344Z,48.72
2022-11-29T06:07:22.905Z,52.45
2022-11-29T06:12:26.810Z,50.47
2022-11-29T06:17:55.153Z,48.33
2022-11-29T06:22:57.700Z,64.32
2022-11-29T06:28:25.438Z,66.05
2022-11-29T06:33:53.923Z,88.28
2022-11-29T06:38:55.950Z,87.13
2022-11-29T06:49:45.403Z,116.38
2022-11-29T06:55:19.538Z,106.17
2022-11-29T07:00:27.054Z,109.87
2022-11-29T07:05:33.915Z,105.95
2022-11-29T07:10:38.367Z,102.65
2022-11-29T07:16:10.922Z,120.32
2022-11-29T07:21:42.760Z,104.57
2022-11-29T07:27:06.626Z,123.22
2022-11-29T07:32:28.776Z,100.07
2022-11-29T07:38:03.625Z,109.78
2022-11-29T07:48:17.633Z,115.07
2022-11-29T07:53:21.055Z,108.72
2022-11-29T07:58:22.733Z,84.87
2022-11-29T08:03:24.427Z,97.75
2022-11-29T08:08:26.139Z,113.03
2022-11-29T08:13:27.778Z,104.65
2022-11-29T08:18:29.493Z,98.10
2022-11-29T08:23:31.143Z,113.13
2022-11-29T08:28:32.880Z,122.03
2022-11-29T08:33:39.722Z,103.45
2022-11-29T08:38:41.661Z,147.90
2022-11-29T08:43:44.308Z,146.05
2022-11-29T08:48:47.378Z,155.43
2022-11-29T08:53:51.571Z,156.82
2022-11-29T08:58:53.238Z,150.25
2022-11-29T09:04:05.065Z,149.32
2022-11-29T09:09:07.338Z,140.75
2022-11-29T09:14:17.020Z,166.73
2022-11-29T09:19:18.879Z,133.50
2022-11-29T09:24:20.733Z,123.35
2022-11-29T09:29:22.413Z,132.00
2022-11-29T09:34:24.146Z,129.00
2022-11-29T09:39:26.317Z,130.65
2022-11-29T09:44:39.064Z,145.70
2022-11-29T09:50:03.652Z,125.63
2022-11-29T10:00:26.095Z,131.15
2022-11-29T10:05:47.449Z,128.90
2022-11-29T10:10:53.559Z,141.05
2022-11-29T10:16:04.471Z,152.82
2022-11-29T10:21:20.238Z,136.13
2022-11-29T10:26:23.078Z,130.00
2022-11-29T10:31:28.690Z,139.70
2022-11-29T10:36:38.898Z,145.98
2022-11-29T10:41:40.651Z,151.27
2022-11-29T10:46:42.411Z,130.68
2022-11-29T10:51:45.127Z,125.05
2022-11-29T10:56:47.934Z,135.85
2022-11-29T11:01:51.160Z,133.07
2022-11-29T11:06:56.681Z,150.00
2022-11-29T11:12:01.724Z,143.20
2022-11-29T11:17:26.271Z,150.40
2022-11-29T11:22:29.666Z,135.45
2022-11-29T11:27:39.679Z,118.03
2022-11-29T11:33:07.267Z,130.93
2022-11-29T11:38:17.116Z,129.18
2022-11-29T11:43:21.531Z,117.07
2022-11-29T11:48:23.650Z,115.97
2022-11-29T11:53:29.840Z,115.80
2022-11-29T11:58:39.515Z,104.10
2022-11-29T12:03:52.649Z,90.22
2022-11-29T12:09:11.696Z,109.03
2022-11-29T12:14:39.178Z,110.75
2022-11-29T12:19:57.094Z,94.28
2022-11-29T12:25:04.959Z,92.97
2022-11-29T12:30:13.218Z,97.50
2022-11-29T12:35:36.386Z,103.05
2022-11-29T12:41:10.224Z,100.03
2022-11-29T12:46:20.243Z,97.97
2022-11-29T12:51:40.067Z,88.03
2022-11-29T12:57:08.092Z,81.03
2022-11-29T13:02:34.546Z,82.53
2022-11-29T13:08:07.006Z,84.75
2022-11-29T13:13:18.423Z,76.63
2022-11-29T13:18:27.757Z,82.78
2022-11-29T13:23:45.741Z,86.45
2022-11-29T13:28:58.442Z,84.20
2022-11-29T13:34:13.082Z,82.30
2022-11-29T13:39:32.862Z,80.03
2022-11-29T13:44:49.438Z,84.43
2022-11-29T13:49:53.908Z,85.50
2022-11-29T13:55:11.506Z,90.78
2022-11-29T14:00:42.535Z,82.55
2022-11-29T14:05:46.426Z,84.18
2022-11-29T14:10:49.605Z,72.90
2022-11-29T14:16:00.950Z,76.82
2022-11-29T14:21:04.142Z,82.53
2022-11-29T14:26:05.823Z,81.05
2022-11-29T14:31:09.126Z,93.55
2022-11-29T14:36:22.821Z,76.32
2022-11-29T14:41:24.391Z,87.73
2022-11-29T14:46:30.415Z,75.15
2022-11-29T14:51:34.219Z,80.38
2022-11-29T14:56:42.577Z,71.15
2022-11-29T15:01:45.550Z,74.75
2022-11-29T15:06:52.969Z,71.00
2022-11-29T15:11:59.359Z,72.72
2022-11-29T15:17:30.103Z,80.05
2022-11-29T15:22:52.782Z,72.20
2022-11-29T15:27:57.129Z,83.13
2022-11-29T15:38:02.056Z,81.70
2022-11-29T15:43:26.055Z,88.00
2022-11-29T15:48:32.790Z,89.00
2022-11-29T15:54:00.456Z,96.53
2022-11-29T15:59:36.108Z,108.00
2022-11-29T16:09:53.051Z,108.40
2022-11-29T16:14:57.023Z,108.28
2022-11-29T16:20:16.546Z,103.07
2022-11-29T16:25:19.887Z,115.05
2022-11-29T16:30:24.435Z,110.30
2022-11-29T16:35:33.125Z,108.88
2022-11-29T16:40:35.376Z,107.03
2022-11-29T16:45:41.026Z,92.55
2022-11-29T16:50:42.833Z,107.82
2022-11-29T16:55:44.516Z,97.22
2022-11-29T17:00:46.251Z,115.10
2022-11-29T17:05:48.549Z,114.13
2022-11-29T17:10:50.247Z,102.38
2022-11-29T17:15:51.970Z,113.22
2022-11-29T17:20:56.017Z,107.07
2022-11-29T17:25:58.931Z,110.32
2022-11-29T17:31:11.699Z,116.28
2022-11-29T17:36:17.203Z,114.13
2022-11-29T17:41:22.434Z,126.60
2022-11-29T17:46:35.274Z,113.32
2022-11-29T17:51:54.232Z,112.78
2022-11-29T17:56:56.170Z,118.85
2022-11-29T18:01:57.898Z,104.63
2022-11-29T18:07:01.391Z,109.07
2022-11-29T18:12:03.158Z,107.83
2022-11-29T18:17:04.926Z,122.95
2022-11-29T18:22:06.614Z,106.97
2022-11-29T18:27:08.263Z,103.72
2022-11-29T18:32:10.017Z,120.85
2022-11-29T18:37:20.004Z,103.45
2022-11-29T18:42:31.045Z,117.68
2022-11-29T18:47:35.296Z,109.50
2022-11-29T18:57:42.680Z,110.53
2022-11-29T19:02:44.433Z,114.68
2022-11-29T19:07:46.236Z,109.45
2022-11-29T19:12:47.957Z,90.45
2022-11-29T19:17:49.570Z,99.82
2022-11-29T19:22:53.790Z,98.47
2022-11-29T19:27:57.762Z,103.80
2022-11-29T19:32:59.478Z,90.85
2022-11-29T19:38:01.211Z,100.20
2022-11-29T19:43:02.946Z,88.40
2022-11-29T19:48:05.034Z,93.53
2022-11-29T19:53:06.865Z,93.28
2022-11-29T19:58:08.529Z,85.30
2022-11-29T20:03:10.219Z,93.40
2022-11-29T20:08:14.855Z,84.65
2022-11-29T20:13:18.959Z,97.75
2022-11-29T20:18:20.658Z,92.22
2022-11-29T20:23:22.295Z,91.43
2022-11-29T20:28:23.975Z,92.25
2022-11-29T20:33:25.761Z,91.43
2022-11-29T20:38:50.579Z,90.88
2022-11-29T20:44:03.261Z,95.30
2022-11-29T20:49:06.756Z,91.70
2022-11-29T20:54:13.319Z,82.73
2022-11-29T20:59:14.981Z,88.90
2022-11-29T21:04:21.618Z,88.72
2022-11-29T21:09:24.862Z,86.05
2022-11-29T21:14:26.759Z,74.80
2022-11-29T21:19:28.730Z,86.50
2022-11-29T21:24:56.683Z,91.20
2022-11-29T21:29:58.781Z,80.68
2022-11-29T21:35:00.376Z,83.97
2022-11-29T21:40:02.045Z,89.82
2022-11-29T21:45:08.213Z,96.72
2022-11-29T21:50:15.122Z,91.18
2022-11-29T21:55:16.834Z,86.93
2022-11-29T22:00:19.048Z,88.50
2022-11-29T22:05:20.643Z,92.75
2022-11-29T22:10:22.380Z,88.60
2022-11-29T22:15:25.245Z,79.70
2022-11-29T22:20:26.978Z,91.00
2022-11-29T22:25:28.746Z,94.28
2022-11-29T22:30:30.534Z,98.32
2022-11-29T22:35:32.182Z,85.80
2022-11-29T22:40:33.785Z,82.43
2022-11-29T22:45:35.454Z,84.70
2022-11-29T22:50:37.074Z,71.90
2022-11-29T22:55:38.739Z,79.85
2022-11-29T23:00:43.925Z,72.88
2022-11-29T23:05:45.723Z,76.00
2022-11-29T23:10:56.839Z,79.63
2022-11-29T23:15:58.482Z,81.57
2022-11-29T23:21:05.384Z,73.65
2022-11-29T23:26:08.793Z,75.20
2022-11-29T23:31:10.479Z,63.43
2022-11-29T23:36:12.896Z,76.28
2022-11-29T23:41:14.639Z,72.30
2022-11-29T23:46:22.118Z,76.72
2022-11-29T23:51:23.780Z,83.68
2022-11-29T23:56:25.521Z,83.45
